sensor_id;sensor_type;location;lat;lon;timestamp;pressure;altitude;pressure_sealevel;temperature
75273;BMP280;63869;52.344;16.928;2023-06-14T00:00:39;100951.44;;;16.41
75273;BMP280;63869;52.344;16.928;2023-06-14T00:03:07;100961.53;;;16.49
75273;BMP280;63869;52.344;16.928;2023-06-14T00:05:37;100966.31;;;16.45
75273;BMP280;63869;52.344;16.928;2023-06-14T00:08:09;100946.09;;;16.28
75273;BMP280;63869;52.344;16.928;2023-06-14T00:10:35;100940.41;;;16.26
75273;BMP280;63869;52.344;16.928;2023-06-14T00:13:02;100940.41;;;16.26
75273;BMP280;63869;52.344;16.928;2023-06-14T00:15:30;100942.81;;;16.33
75273;BMP280;63869;52.344;16.928;2023-06-14T00:17:57;100943.03;;;16.39
75273;BMP280;63869;52.344;16.928;2023-06-14T00:20:26;100940.69;;;16.50
75273;BMP280;63869;52.344;16.928;2023-06-14T00:22:53;100960.38;;;16.81
75273;BMP280;63869;52.344;16.928;2023-06-14T00:25:20;100935.63;;;16.83
75273;BMP280;63869;52.344;16.928;2023-06-14T00:27:45;100949.63;;;16.90
75273;BMP280;63869;52.344;16.928;2023-06-14T00:30:11;100952.69;;;17.02
75273;BMP280;63869;52.344;16.928;2023-06-14T00:32:37;100970.88;;;17.10
75273;BMP280;63869;52.344;16.928;2023-06-14T00:35:02;100948.47;;;17.00
75273;BMP280;63869;52.344;16.928;2023-06-14T00:37:28;100946.34;;;16.95
75273;BMP280;63869;52.344;16.928;2023-06-14T00:39:55;100947.47;;;17.07
75273;BMP280;63869;52.344;16.928;2023-06-14T00:42:24;100949.56;;;17.03
75273;BMP280;63869;52.344;16.928;2023-06-14T00:44:50;100949.56;;;17.03
75273;BMP280;63869;52.344;16.928;2023-06-14T00:47:16;100944.25;;;16.99
75273;BMP280;63869;52.344;16.928;2023-06-14T00:49:41;100955.28;;;17.14
75273;BMP280;63869;52.344;16.928;2023-06-14T00:52:07;100951.69;;;17.08
75273;BMP280;63869;52.344;16.928;2023-06-14T00:54:32;100963.34;;;17.05
75273;BMP280;63869;52.344;16.928;2023-06-14T00:56:57;100955.53;;;16.98
75273;BMP280;63869;52.344;16.928;2023-06-14T00:59:23;100962.25;;;16.93
75273;BMP280;63869;52.344;16.928;2023-06-14T01:01:48;100961.50;;;16.93
75273;BMP280;63869;52.344;16.928;2023-06-14T01:04:13;100954.84;;;16.85
75273;BMP280;63869;52.344;16.928;2023-06-14T01:06:57;100964.88;;;16.84
75273;BMP280;63869;52.344;16.928;2023-06-14T01:09:48;100962.19;;;16.84
75273;BMP280;63869;52.344;16.928;2023-06-14T01:12:44;100963.53;;;16.80
75273;BMP280;63869;52.344;16.928;2023-06-14T01:15:13;100958.41;;;16.73
75273;BMP280;63869;52.344;16.928;2023-06-14T01:17:45;100957.13;;;16.65
75273;BMP280;63869;52.344;16.928;2023-06-14T01:20:12;100955.31;;;16.62
75273;BMP280;63869;52.344;16.928;2023-06-14T01:23:05;100950.53;;;16.66
75273;BMP280;63869;52.344;16.928;2023-06-14T01:25:31;100949.59;;;16.59
75273;BMP280;63869;52.344;16.928;2023-06-14T01:28:00;100944.47;;;16.52
75273;BMP280;63869;52.344;16.928;2023-06-14T01:30:28;100949.22;;;16.48
75273;BMP280;63869;52.344;16.928;2023-06-14T01:32:54;100936.28;;;16.43
75273;BMP280;63869;52.344;16.928;2023-06-14T01:35:21;100944.09;;;16.41
75273;BMP280;63869;52.344;16.928;2023-06-14T01:37:48;100941.09;;;16.39
75273;BMP280;63869;52.344;16.928;2023-06-14T01:40:14;100933.84;;;16.36
75273;BMP280;63869;52.344;16.928;2023-06-14T01:42:40;100934.09;;;16.29
75273;BMP280;63869;52.344;16.928;2023-06-14T01:45:07;100931.97;;;16.24
75273;BMP280;63869;52.344;16.928;2023-06-14T01:47:33;100935.09;;;16.23
75273;BMP280;63869;52.344;16.928;2023-06-14T01:49:59;100934.91;;;16.17
75273;BMP280;63869;52.344;16.928;2023-06-14T01:52:25;100931.91;;;16.15
75273;BMP280;63869;52.344;16.928;2023-06-14T01:54:50;100925.75;;;16.14
75273;BMP280;63869;52.344;16.928;2023-06-14T01:57:16;100916.50;;;16.03
75273;BMP280;63869;52.344;16.928;2023-06-14T01:59:41;100920.06;;;16.00
75273;BMP280;63869;52.344;16.928;2023-06-14T02:02:07;100925.78;;;16.02
75273;BMP280;63869;52.344;16.928;2023-06-14T02:04:33;100923.69;;;16.06
75273;BMP280;63869;52.344;16.928;2023-06-14T02:06:58;100918.31;;;16.06
75273;BMP280;63869;52.344;16.928;2023-06-14T02:09:23;100910.69;;;16.04
75273;BMP280;63869;52.344;16.928;2023-06-14T02:11:49;100912.91;;;16.06
75273;BMP280;63869;52.344;16.928;2023-06-14T02:14:17;100917.25;;;16.03
75273;BMP280;63869;52.344;16.928;2023-06-14T02:16:43;100929.44;;;16.08
75273;BMP280;63869;52.344;16.928;2023-06-14T02:19:15;100925.78;;;16.02
75273;BMP280;63869;52.344;16.928;2023-06-14T02:21:41;100930.13;;;15.99
75273;BMP280;63869;52.344;16.928;2023-06-14T02:24:07;100927.25;;;15.94
75273;BMP280;63869;52.344;16.928;2023-06-14T02:26:32;100923.66;;;15.97
75273;BMP280;63869;52.344;16.928;2023-06-14T02:28:57;100924.53;;;15.94
75273;BMP280;63869;52.344;16.928;2023-06-14T02:31:23;100934.13;;;15.95
75273;BMP280;63869;52.344;16.928;2023-06-14T02:33:48;100927.78;;;15.89
75273;BMP280;63869;52.344;16.928;2023-06-14T02:36:14;100928.75;;;15.82
75273;BMP280;63869;52.344;16.928;2023-06-14T02:38:39;100924.91;;;15.70
75273;BMP280;63869;52.344;16.928;2023-06-14T02:41:04;100922.97;;;15.58
75273;BMP280;63869;52.344;16.928;2023-06-14T02:43:31;100924.72;;;15.52
75273;BMP280;63869;52.344;16.928;2023-06-14T02:45:56;100926.34;;;15.50
75273;BMP280;63869;52.344;16.928;2023-06-14T02:48:21;100928.72;;;15.48
75273;BMP280;63869;52.344;16.928;2023-06-14T02:50:46;100925.69;;;15.45
75273;BMP280;63869;52.344;16.928;2023-06-14T02:53:12;100924.50;;;15.47
75273;BMP280;63869;52.344;16.928;2023-06-14T02:55:37;100933.97;;;15.51
75273;BMP280;63869;52.344;16.928;2023-06-14T02:58:05;100929.34;;;15.52
75273;BMP280;63869;52.344;16.928;2023-06-14T03:00:30;100936.25;;;15.53
75273;BMP280;63869;52.344;16.928;2023-06-14T03:02:56;100937.56;;;15.61
75273;BMP280;63869;52.344;16.928;2023-06-14T03:05:21;100932.59;;;15.59
75273;BMP280;63869;52.344;16.928;2023-06-14T03:07:47;100931.59;;;15.66
75273;BMP280;63869;52.344;16.928;2023-06-14T03:10:12;100930.41;;;15.67
75273;BMP280;63869;52.344;16.928;2023-06-14T03:12:38;100927.53;;;15.61
75273;BMP280;63869;52.344;16.928;2023-06-14T03:15:04;100930.72;;;15.56
75273;BMP280;63869;52.344;16.928;2023-06-14T03:17:30;100927.41;;;15.52
75273;BMP280;63869;52.344;16.928;2023-06-14T03:19:59;100926.91;;;15.44
75273;BMP280;63869;52.344;16.928;2023-06-14T03:22:24;100931.75;;;15.50
75273;BMP280;63869;52.344;16.928;2023-06-14T03:24:51;100931.28;;;15.51
75273;BMP280;63869;52.344;16.928;2023-06-14T03:27:17;100925.59;;;15.49
75273;BMP280;63869;52.344;16.928;2023-06-14T03:29:42;100936.13;;;15.56
75273;BMP280;63869;52.344;16.928;2023-06-14T03:32:08;100930.00;;;15.56
75273;BMP280;63869;52.344;16.928;2023-06-14T03:34:33;100926.84;;;15.57
75273;BMP280;63869;52.344;16.928;2023-06-14T03:36:59;100928.34;;;15.58
75273;BMP280;63869;52.344;16.928;2023-06-14T03:39:24;100934.09;;;15.60
75273;BMP280;63869;52.344;16.928;2023-06-14T03:41:50;100934.72;;;15.64
75273;BMP280;63869;52.344;16.928;2023-06-14T03:44:16;100940.44;;;15.66
75273;BMP280;63869;52.344;16.928;2023-06-14T03:46:43;100946.59;;;15.67
75273;BMP280;63869;52.344;16.928;2023-06-14T03:49:08;100956.81;;;15.72
75273;BMP280;63869;52.344;16.928;2023-06-14T03:51:33;100950.97;;;15.73
75273;BMP280;63869;52.344;16.928;2023-06-14T03:54:00;100950.47;;;15.66
75273;BMP280;63869;52.344;16.928;2023-06-14T03:56:26;100950.56;;;15.62
75273;BMP280;63869;52.344;16.928;2023-06-14T03:58:52;100949.81;;;15.62
75273;BMP280;63869;52.344;16.928;2023-06-14T04:01:17;100950.56;;;15.62
75273;BMP280;63869;52.344;16.928;2023-06-14T04:03:42;100945.09;;;15.66
75273;BMP280;63869;52.344;16.928;2023-06-14T04:06:09;100966.41;;;15.73
75273;BMP280;63869;52.344;16.928;2023-06-14T04:08:35;100954.84;;;15.72
75273;BMP280;63869;52.344;16.928;2023-06-14T04:11:01;100959.06;;;15.73
75273;BMP280;63869;52.344;16.928;2023-06-14T04:13:26;100959.28;;;15.79
75273;BMP280;63869;52.344;16.928;2023-06-14T04:15:52;100953.78;;;15.82
75273;BMP280;63869;52.344;16.928;2023-06-14T04:18:17;100958.16;;;15.89
75273;BMP280;63869;52.344;16.928;2023-06-14T04:20:44;100963.06;;;15.94
75273;BMP280;63869;52.344;16.928;2023-06-14T04:23:14;100963.13;;;16.03
75273;BMP280;63869;52.344;16.928;2023-06-14T04:25:40;100962.16;;;16.10
75273;BMP280;63869;52.344;16.928;2023-06-14T04:28:07;100962.78;;;16.14
75273;BMP280;63869;52.344;16.928;2023-06-14T04:30:34;100962.91;;;16.10
75273;BMP280;63869;52.344;16.928;2023-06-14T04:33:00;100966.97;;;16.15
75273;BMP280;63869;52.344;16.928;2023-06-14T04:35:26;100969.75;;;16.24
75273;BMP280;63869;52.344;16.928;2023-06-14T04:37:52;100965.13;;;16.25
75273;BMP280;63869;52.344;16.928;2023-06-14T04:40:19;100957.13;;;16.21
75273;BMP280;63869;52.344;16.928;2023-06-14T04:42:44;100958.31;;;16.20
75273;BMP280;63869;52.344;16.928;2023-06-14T04:45:10;100957.84;;;16.21
75273;BMP280;63869;52.344;16.928;2023-06-14T04:47:36;100966.63;;;16.26
75273;BMP280;63869;52.344;16.928;2023-06-14T04:50:02;100965.94;;;16.21
75273;BMP280;63869;52.344;16.928;2023-06-14T04:52:28;100962.84;;;16.23
75273;BMP280;63869;52.344;16.928;2023-06-14T04:54:56;100975.47;;;16.26
75273;BMP280;63869;52.344;16.928;2023-06-14T04:57:21;100968.78;;;16.18
75273;BMP280;63869;52.344;16.928;2023-06-14T04:59:48;100973.22;;;16.25
75273;BMP280;63869;52.344;16.928;2023-06-14T05:02:13;100965.72;;;16.29
75273;BMP280;63869;52.344;16.928;2023-06-14T05:04:39;100975.16;;;16.46
75273;BMP280;63869;52.344;16.928;2023-06-14T05:07:07;100981.00;;;16.44
75273;BMP280;63869;52.344;16.928;2023-06-14T05:09:33;100975.34;;;16.51
75273;BMP280;63869;52.344;16.928;2023-06-14T05:11:58;100974.81;;;16.56
75273;BMP280;63869;52.344;16.928;2023-06-14T05:14:25;100971.72;;;16.67
75273;BMP280;63869;52.344;16.928;2023-06-14T05:16:51;100970.06;;;16.70
75273;BMP280;63869;52.344;16.928;2023-06-14T05:19:17;100974.09;;;16.87
75273;BMP280;63869;52.344;16.928;2023-06-14T05:21:43;100973.97;;;16.99
75273;BMP280;63869;52.344;16.928;2023-06-14T05:24:09;100975.81;;;17.03
75273;BMP280;63869;52.344;16.928;2023-06-14T05:26:34;100982.59;;;17.07
75273;BMP280;63869;52.344;16.928;2023-06-14T05:29:00;100984.75;;;17.21
75273;BMP280;63869;52.344;16.928;2023-06-14T05:31:26;100983.00;;;17.36
75273;BMP280;63869;52.344;16.928;2023-06-14T05:33:52;100998.03;;;17.47
75273;BMP280;63869;52.344;16.928;2023-06-14T05:36:19;100986.66;;;17.52
75273;BMP280;63869;52.344;16.928;2023-06-14T05:38:46;100992.28;;;17.66
75273;BMP280;63869;52.344;16.928;2023-06-14T05:41:11;100989.72;;;17.72
75273;BMP280;63869;52.344;16.928;2023-06-14T05:43:37;100995.16;;;17.90
75273;BMP280;63869;52.344;16.928;2023-06-14T05:46:03;100997.25;;;18.04
75273;BMP280;63869;52.344;16.928;2023-06-14T05:48:30;100996.50;;;18.22
75273;BMP280;63869;52.344;16.928;2023-06-14T05:50:55;101008.06;;;18.41
75273;BMP280;63869;52.344;16.928;2023-06-14T05:53:21;101002.34;;;18.57
75273;BMP280;63869;52.344;16.928;2023-06-14T05:55:46;101001.13;;;18.76
75273;BMP280;63869;52.344;16.928;2023-06-14T05:58:11;101005.94;;;18.81
75273;BMP280;63869;52.344;16.928;2023-06-14T06:00:39;101007.34;;;19.01
75273;BMP280;63869;52.344;16.928;2023-06-14T06:03:04;101000.38;;;19.18
75273;BMP280;63869;52.344;16.928;2023-06-14T06:05:31;101013.09;;;19.35
75273;BMP280;63869;52.344;16.928;2023-06-14T06:07:56;101018.13;;;19.52
75273;BMP280;63869;52.344;16.928;2023-06-14T06:10:21;101009.81;;;19.55
75273;BMP280;63869;52.344;16.928;2023-06-14T06:12:47;101014.97;;;19.53
75273;BMP280;63869;52.344;16.928;2023-06-14T06:15:17;101016.97;;;19.44
75273;BMP280;63869;52.344;16.928;2023-06-14T06:17:43;101011.19;;;19.27
75273;BMP280;63869;52.344;16.928;2023-06-14T06:20:09;101016.38;;;19.07
75273;BMP280;63869;52.344;16.928;2023-06-14T06:22:34;101011.00;;;18.97
75273;BMP280;63869;52.344;16.928;2023-06-14T06:25:00;101015.47;;;19.01
75273;BMP280;63869;52.344;16.928;2023-06-14T06:27:26;101014.91;;;18.96
75273;BMP280;63869;52.344;16.928;2023-06-14T06:29:51;101020.31;;;18.96
75273;BMP280;63869;52.344;16.928;2023-06-14T06:32:17;101030.59;;;18.92
75273;BMP280;63869;52.344;16.928;2023-06-14T06:34:42;101035.69;;;19.00
75273;BMP280;63869;52.344;16.928;2023-06-14T06:37:08;101040.34;;;18.99
75273;BMP280;63869;52.344;16.928;2023-06-14T06:39:34;101039.28;;;18.96
75273;BMP280;63869;52.344;16.928;2023-06-14T06:42:00;101041.88;;;19.00
75273;BMP280;63869;52.344;16.928;2023-06-14T06:44:25;101035.97;;;19.02
75273;BMP280;63869;52.344;16.928;2023-06-14T06:46:50;101037.91;;;19.01
75273;BMP280;63869;52.344;16.928;2023-06-14T06:49:15;101044.09;;;19.02
75273;BMP280;63869;52.344;16.928;2023-06-14T06:51:41;101041.09;;;19.09
75273;BMP280;63869;52.344;16.928;2023-06-14T06:54:08;101043.16;;;19.23
75273;BMP280;63869;52.344;16.928;2023-06-14T06:56:34;101042.06;;;19.29
75273;BMP280;63869;52.344;16.928;2023-06-14T06:58:59;101042.16;;;19.44
75273;BMP280;63869;52.344;16.928;2023-06-14T07:01:25;101039.66;;;19.55
75273;BMP280;63869;52.344;16.928;2023-06-14T07:03:51;101045.78;;;19.65
75273;BMP280;63869;52.344;16.928;2023-06-14T07:06:18;101058.38;;;19.77
75273;BMP280;63869;52.344;16.928;2023-06-14T07:08:44;101054.00;;;19.79
75273;BMP280;63869;52.344;16.928;2023-06-14T07:11:09;101060.63;;;19.78
75273;BMP280;63869;52.344;16.928;2023-06-14T07:13:35;101055.03;;;19.82
75273;BMP280;63869;52.344;16.928;2023-06-14T07:16:01;101061.34;;;19.88
75273;BMP280;63869;52.344;16.928;2023-06-14T07:18:27;101056.19;;;19.90
75273;BMP280;63869;52.344;16.928;2023-06-14T07:20:53;101067.72;;;19.76
75273;BMP280;63869;52.344;16.928;2023-06-14T07:23:19;101064.31;;;19.66
75273;BMP280;63869;52.344;16.928;2023-06-14T07:25:44;101059.66;;;19.67
75273;BMP280;63869;52.344;16.928;2023-06-14T07:28:11;101060.28;;;19.62
75273;BMP280;63869;52.344;16.928;2023-06-14T07:30:36;101061.09;;;19.53
75273;BMP280;63869;52.344;16.928;2023-06-14T07:33:02;101054.19;;;19.43
75273;BMP280;63869;52.344;16.928;2023-06-14T07:35:27;101063.88;;;19.35
75273;BMP280;63869;52.344;16.928;2023-06-14T07:37:52;101061.16;;;19.35
75273;BMP280;63869;52.344;16.928;2023-06-14T07:40:19;101059.94;;;19.36
75273;BMP280;63869;52.344;16.928;2023-06-14T07:42:44;101045.94;;;19.37
75273;BMP280;63869;52.344;16.928;2023-06-14T07:45:10;101049.06;;;19.45
75273;BMP280;63869;52.344;16.928;2023-06-14T07:47:36;101059.41;;;19.56
75273;BMP280;63869;52.344;16.928;2023-06-14T07:50:02;101051.41;;;19.61
75273;BMP280;63869;52.344;16.928;2023-06-14T07:52:28;101054.38;;;19.63
75273;BMP280;63869;52.344;16.928;2023-06-14T07:54:53;101049.72;;;19.64
75273;BMP280;63869;52.344;16.928;2023-06-14T07:57:18;101052.91;;;19.62
75273;BMP280;63869;52.344;16.928;2023-06-14T07:59:45;101042.19;;;19.59
75273;BMP280;63869;52.344;16.928;2023-06-14T08:02:11;101050.84;;;19.48
75273;BMP280;63869;52.344;16.928;2023-06-14T08:04:36;101038.25;;;19.36
75273;BMP280;63869;52.344;16.928;2023-06-14T08:07:02;101037.63;;;19.41
75273;BMP280;63869;52.344;16.928;2023-06-14T08:09:27;101039.97;;;19.57
75273;BMP280;63869;52.344;16.928;2023-06-14T08:11:54;101048.03;;;19.66
75273;BMP280;63869;52.344;16.928;2023-06-14T08:14:21;101046.88;;;19.82
75273;BMP280;63869;52.344;16.928;2023-06-14T08:16:46;101040.16;;;20.01
75273;BMP280;63869;52.344;16.928;2023-06-14T08:19:11;101048.78;;;20.29
75273;BMP280;63869;52.344;16.928;2023-06-14T08:21:37;101050.41;;;20.50
75273;BMP280;63869;52.344;16.928;2023-06-14T08:24:02;101051.66;;;20.64
75273;BMP280;63869;52.344;16.928;2023-06-14T08:26:29;101064.84;;;20.71
75273;BMP280;63869;52.344;16.928;2023-06-14T08:28:55;101063.63;;;20.87
75273;BMP280;63869;52.344;16.928;2023-06-14T08:31:22;101059.34;;;20.80
75273;BMP280;63869;52.344;16.928;2023-06-14T08:33:47;101059.13;;;20.84
75273;BMP280;63869;52.344;16.928;2023-06-14T08:36:13;101060.59;;;21.14
75273;BMP280;63869;52.344;16.928;2023-06-14T08:38:39;101068.53;;;21.53
75273;BMP280;63869;52.344;16.928;2023-06-14T08:41:05;101063.97;;;21.79
75273;BMP280;63869;52.344;16.928;2023-06-14T08:43:32;101061.38;;;21.90
75273;BMP280;63869;52.344;16.928;2023-06-14T08:46:03;101061.63;;;21.92
75273;BMP280;63869;52.344;16.928;2023-06-14T08:48:30;101066.25;;;22.06
75273;BMP280;63869;52.344;16.928;2023-06-14T08:51:02;101064.00;;;22.30
75273;BMP280;63869;52.344;16.928;2023-06-14T08:53:32;101058.84;;;22.64
75273;BMP280;63869;52.344;16.928;2023-06-14T08:56:00;101059.06;;;22.92
75273;BMP280;63869;52.344;16.928;2023-06-14T08:58:27;101066.03;;;22.98
75273;BMP280;63869;52.344;16.928;2023-06-14T09:00:55;101060.00;;;22.83
75273;BMP280;63869;52.344;16.928;2023-06-14T09:03:21;101061.63;;;23.06
75273;BMP280;63869;52.344;16.928;2023-06-14T09:05:47;101064.53;;;23.40
75273;BMP280;63869;52.344;16.928;2023-06-14T09:08:12;101069.38;;;23.67
75273;BMP280;63869;52.344;16.928;2023-06-14T09:10:39;101071.97;;;23.93
75273;BMP280;63869;52.344;16.928;2023-06-14T09:13:05;101075.97;;;24.09
75273;BMP280;63869;52.344;16.928;2023-06-14T09:15:31;101077.44;;;23.98
75273;BMP280;63869;52.344;16.928;2023-06-14T09:17:57;101072.94;;;23.95
75273;BMP280;63869;52.344;16.928;2023-06-14T09:20:24;101070.28;;;24.23
75273;BMP280;63869;52.344;16.928;2023-06-14T09:22:49;101070.00;;;24.38
75273;BMP280;63869;52.344;16.928;2023-06-14T09:25:14;101070.78;;;24.49
75273;BMP280;63869;52.344;16.928;2023-06-14T09:27:41;101064.56;;;24.32
75273;BMP280;63869;52.344;16.928;2023-06-14T09:30:09;101060.56;;;24.17
75273;BMP280;63869;52.344;16.928;2023-06-14T09:32:37;101059.53;;;23.97
75273;BMP280;63869;52.344;16.928;2023-06-14T09:35:06;101057.25;;;23.90
75273;BMP280;63869;52.344;16.928;2023-06-14T09:37:32;101058.47;;;23.73
75273;BMP280;63869;52.344;16.928;2023-06-14T09:39:58;101055.41;;;23.54
75273;BMP280;63869;52.344;16.928;2023-06-14T09:42:24;101056.34;;;23.40
75273;BMP280;63869;52.344;16.928;2023-06-14T09:44:55;101053.16;;;23.47
75273;BMP280;63869;52.344;16.928;2023-06-14T09:47:22;101051.97;;;23.53
75273;BMP280;63869;52.344;16.928;2023-06-14T09:49:48;101059.38;;;23.47
75273;BMP280;63869;52.344;16.928;2023-06-14T09:52:18;101048.97;;;23.46
75273;BMP280;63869;52.344;16.928;2023-06-14T09:54:46;101041.47;;;23.41
75273;BMP280;63869;52.344;16.928;2023-06-14T10:17:54;101017.94;;;23.49
75273;BMP280;63869;52.344;16.928;2023-06-14T10:22:51;101013.09;;;24.14
75273;BMP280;63869;52.344;16.928;2023-06-14T10:25:28;101011.09;;;24.37
75273;BMP280;63869;52.344;16.928;2023-06-14T10:28:14;101008.59;;;24.61
75273;BMP280;63869;52.344;16.928;2023-06-14T10:31:01;101005.31;;;24.79
75273;BMP280;63869;52.344;16.928;2023-06-14T10:33:28;101010.72;;;25.13
75273;BMP280;63869;52.344;16.928;2023-06-14T10:41:23;101003.16;;;26.06
75273;BMP280;63869;52.344;16.928;2023-06-14T10:43:48;100997.72;;;26.01
75273;BMP280;63869;52.344;16.928;2023-06-14T10:48:42;100998.19;;;26.05
75273;BMP280;63869;52.344;16.928;2023-06-14T10:51:39;100995.38;;;26.16
75273;BMP280;63869;52.344;16.928;2023-06-14T10:54:20;100998.09;;;26.16
75273;BMP280;63869;52.344;16.928;2023-06-14T10:59:12;100993.09;;;25.84
75273;BMP280;63869;52.344;16.928;2023-06-14T11:04:47;100994.84;;;26.17
75273;BMP280;63869;52.344;16.928;2023-06-14T11:10:03;100995.50;;;26.29
75273;BMP280;63869;52.344;16.928;2023-06-14T11:12:32;100985.06;;;26.22
75273;BMP280;63869;52.344;16.928;2023-06-14T11:14:58;100994.66;;;26.10
75273;BMP280;63869;52.344;16.928;2023-06-14T11:17:23;100984.00;;;26.01
75273;BMP280;63869;52.344;16.928;2023-06-14T11:19:49;100985.13;;;25.86
75273;BMP280;63869;52.344;16.928;2023-06-14T11:22:15;100986.03;;;25.65
75273;BMP280;63869;52.344;16.928;2023-06-14T11:24:40;100984.16;;;25.43
75273;BMP280;63869;52.344;16.928;2023-06-14T11:27:06;100981.72;;;25.34
75273;BMP280;63869;52.344;16.928;2023-06-14T11:29:31;100981.97;;;25.36
75273;BMP280;63869;52.344;16.928;2023-06-14T11:31:56;100984.44;;;25.39
75273;BMP280;63869;52.344;16.928;2023-06-14T11:34:22;100972.56;;;25.26
75273;BMP280;63869;52.344;16.928;2023-06-14T11:36:47;100973.34;;;25.21
75273;BMP280;63869;52.344;16.928;2023-06-14T11:39:13;100976.59;;;25.19
75273;BMP280;63869;52.344;16.928;2023-06-14T11:41:41;100982.22;;;25.32
75273;BMP280;63869;52.344;16.928;2023-06-14T11:44:07;100975.69;;;25.47
75273;BMP280;63869;52.344;16.928;2023-06-14T11:46:33;100970.28;;;25.71
75273;BMP280;63869;52.344;16.928;2023-06-14T11:48:58;100975.34;;;25.97
75273;BMP280;63869;52.344;16.928;2023-06-14T11:51:24;100962.22;;;26.14
75273;BMP280;63869;52.344;16.928;2023-06-14T11:53:50;100968.81;;;26.29
75273;BMP280;63869;52.344;16.928;2023-06-14T11:56:15;100956.72;;;26.62
75273;BMP280;63869;52.344;16.928;2023-06-14T11:58:43;100959.50;;;27.00
75273;BMP280;63869;52.344;16.928;2023-06-14T12:01:08;100952.31;;;26.97
75273;BMP280;63869;52.344;16.928;2023-06-14T12:03:33;100948.16;;;27.09
75273;BMP280;63869;52.344;16.928;2023-06-14T12:06:04;100953.56;;;27.14
75273;BMP280;63869;52.344;16.928;2023-06-14T12:08:34;100946.06;;;27.15
75273;BMP280;63869;52.344;16.928;2023-06-14T12:11:04;100941.78;;;27.01
75273;BMP280;63869;52.344;16.928;2023-06-14T12:13:29;100938.78;;;26.61
75273;BMP280;63869;52.344;16.928;2023-06-14T12:15:58;100944.34;;;26.31
75273;BMP280;63869;52.344;16.928;2023-06-14T12:18:35;100940.38;;;26.03
75273;BMP280;63869;52.344;16.928;2023-06-14T12:21:01;100941.44;;;25.64
75273;BMP280;63869;52.344;16.928;2023-06-14T12:26:12;100939.91;;;24.81
75273;BMP280;63869;52.344;16.928;2023-06-14T12:28:40;100945.75;;;24.39
75273;BMP280;63869;52.344;16.928;2023-06-14T12:31:07;100949.75;;;24.10
75273;BMP280;63869;52.344;16.928;2023-06-14T12:33:36;100939.03;;;23.84
75273;BMP280;63869;52.344;16.928;2023-06-14T12:36:06;100945.97;;;23.74
75273;BMP280;63869;52.344;16.928;2023-06-14T12:38:33;100949.69;;;23.60
75273;BMP280;63869;52.344;16.928;2023-06-14T12:40:58;100951.66;;;23.54
75273;BMP280;63869;52.344;16.928;2023-06-14T12:43:24;100949.69;;;23.49
75273;BMP280;63869;52.344;16.928;2023-06-14T12:45:49;100939.97;;;23.42
75273;BMP280;63869;52.344;16.928;2023-06-14T12:48:14;100948.19;;;23.48
75273;BMP280;63869;52.344;16.928;2023-06-14T12:50:40;100944.22;;;23.49
75273;BMP280;63869;52.344;16.928;2023-06-14T12:53:06;100945.44;;;23.48
75273;BMP280;63869;52.344;16.928;2023-06-14T12:55:32;100935.25;;;23.54
75273;BMP280;63869;52.344;16.928;2023-06-14T12:57:57;100935.06;;;23.74
75273;BMP280;63869;52.344;16.928;2023-06-14T13:00:23;100934.31;;;24.07
75273;BMP280;63869;52.344;16.928;2023-06-14T13:02:48;100926.81;;;24.52
75273;BMP280;63869;52.344;16.928;2023-06-14T13:05:14;100929.66;;;24.93
75273;BMP280;63869;52.344;16.928;2023-06-14T13:07:39;100924.75;;;25.27
75273;BMP280;63869;52.344;16.928;2023-06-14T13:10:04;100925.78;;;25.59
75273;BMP280;63869;52.344;16.928;2023-06-14T13:12:30;100928.00;;;25.91
75273;BMP280;63869;52.344;16.928;2023-06-14T13:14:55;100923.69;;;26.25
75273;BMP280;63869;52.344;16.928;2023-06-14T13:17:20;100919.47;;;26.48
75273;BMP280;63869;52.344;16.928;2023-06-14T13:19:46;100918.66;;;26.72
75273;BMP280;63869;52.344;16.928;2023-06-14T13:22:11;100911.94;;;26.92
75273;BMP280;63869;52.344;16.928;2023-06-14T13:24:36;100915.03;;;27.01
75273;BMP280;63869;52.344;16.928;2023-06-14T13:27:02;100909.44;;;26.94
75273;BMP280;63869;52.344;16.928;2023-06-14T13:29:27;100904.50;;;26.87
75273;BMP280;63869;52.344;16.928;2023-06-14T13:31:53;100901.91;;;26.75
75273;BMP280;63869;52.344;16.928;2023-06-14T13:34:19;100913.03;;;26.46
75273;BMP280;63869;52.344;16.928;2023-06-14T13:36:45;100908.72;;;26.50
75273;BMP280;63869;52.344;16.928;2023-06-14T13:39:10;100896.50;;;26.70
75273;BMP280;63869;52.344;16.928;2023-06-14T13:41:39;100895.59;;;26.99
75273;BMP280;63869;52.344;16.928;2023-06-14T13:44:04;100899.44;;;27.28
75273;BMP280;63869;52.344;16.928;2023-06-14T13:46:30;100898.88;;;27.61
75273;BMP280;63869;52.344;16.928;2023-06-14T13:48:55;100889.81;;;27.93
75273;BMP280;63869;52.344;16.928;2023-06-14T13:51:22;100895.09;;;28.30
75273;BMP280;63869;52.344;16.928;2023-06-14T13:53:48;100892.03;;;28.81
75273;BMP280;63869;52.344;16.928;2023-06-14T13:56:14;100891.44;;;29.16
75273;BMP280;63869;52.344;16.928;2023-06-14T13:58:39;100889.72;;;29.54
75273;BMP280;63869;52.344;16.928;2023-06-14T14:01:05;100899.88;;;29.88
75273;BMP280;63869;52.344;16.928;2023-06-14T14:03:30;100885.13;;;30.13
75273;BMP280;63869;52.344;16.928;2023-06-14T14:05:56;100891.94;;;30.20
75273;BMP280;63869;52.344;16.928;2023-06-14T14:08:21;100890.41;;;30.04
75273;BMP280;63869;52.344;16.928;2023-06-14T14:10:46;100900.84;;;29.98
75273;BMP280;63869;52.344;16.928;2023-06-14T14:13:12;100896.53;;;29.82
75273;BMP280;63869;52.344;16.928;2023-06-14T14:15:38;100896.31;;;29.51
75273;BMP280;63869;52.344;16.928;2023-06-14T14:18:03;100888.22;;;29.04
75273;BMP280;63869;52.344;16.928;2023-06-14T14:20:30;100894.91;;;28.75
75273;BMP280;63869;52.344;16.928;2023-06-14T14:22:55;100890.63;;;28.53